createdAt,value
2017-06-28T00:01:28.157Z,99031.66
2017-06-28T00:03:57.229Z,99025.56
2017-06-28T00:06:26.299Z,99029.89
2017-06-28T00:08:56.172Z,99016.72
2017-06-28T00:11:25.332Z,99013.62
2017-06-28T00:13:55.144Z,99002.03
2017-06-28T00:16:24.207Z,99001.84
2017-06-28T00:18:53.573Z,98998.50
2017-06-28T00:21:22.680Z,98996.21
2017-06-28T00:23:51.732Z,98985.98
2017-06-28T00:26:21.340Z,98981.86
2017-06-28T00:28:50.436Z,98985.81
2017-06-28T00:31:20.269Z,98982.44
2017-06-28T00:33:49.354Z,98980.88
2017-06-28T00:36:18.421Z,98968.72
2017-06-28T00:38:48.271Z,98967.19
2017-06-28T00:41:17.405Z,98962.66
2017-06-28T00:43:46.448Z,98954.04
2017-06-28T00:46:15.546Z,98960.69
2017-06-28T00:48:44.602Z,98944.95
2017-06-28T00:51:13.996Z,98934.89
2017-06-28T00:53:43.589Z,98930.38
2017-06-28T00:56:12.720Z,98934.27
2017-06-28T00:58:42.573Z,98932.48
2017-06-28T01:01:11.619Z,98931.86
2017-06-28T01:03:40.724Z,98938.27
2017-06-28T01:06:10.625Z,98929.23
2017-06-28T01:08:39.686Z,98935.84
2017-06-28T01:11:09.111Z,98928.19
2017-06-28T01:13:38.164Z,98927.97
2017-06-28T01:16:08.039Z,98927.20
2017-06-28T01:18:37.419Z,98923.06
2017-06-28T01:21:06.474Z,98916.56
2017-06-28T01:23:35.597Z,98914.05
2017-06-28T01:26:05.064Z,98909.80
2017-06-28T01:28:34.893Z,98905.69
2017-06-28T01:31:03.952Z,98896.86
2017-06-28T01:33:33.863Z,98896.16
2017-06-28T01:36:02.940Z,98903.25
2017-06-28T01:38:31.984Z,98899.96
2017-06-28T01:41:01.072Z,98894.48
2017-06-28T01:43:30.136Z,98892.14
2017-06-28T01:45:59.185Z,98884.69
2017-06-28T01:48:28.270Z,98888.81
2017-06-28T01:50:57.351Z,98882.74
2017-06-28T01:53:26.444Z,98878.82
2017-06-28T01:55:55.524Z,98881.98
2017-06-28T01:58:25.361Z,98871.21
2017-06-28T02:00:55.188Z,98867.50
2017-06-28T02:03:24.253Z,98867.31
2017-06-28T02:05:54.074Z,98866.56
2017-06-28T02:08:23.903Z,98863.48
2017-06-28T02:10:52.984Z,98853.34
2017-06-28T02:13:22.827Z,98864.09
2017-06-28T02:15:51.887Z,98867.45
2017-06-28T02:18:20.976Z,98873.52
2017-06-28T02:20:50.038Z,98854.02
2017-06-28T02:23:19.094Z,98855.13
2017-06-28T02:25:48.186Z,98852.88
2017-06-28T02:28:17.235Z,98855.94
2017-06-28T02:30:46.285Z,98855.10
2017-06-28T02:33:15.383Z,98845.25
2017-06-28T02:35:44.491Z,98834.12
2017-06-28T02:38:13.643Z,98835.89
2017-06-28T02:40:42.744Z,98829.78
2017-06-28T02:43:11.875Z,98821.22
2017-06-28T02:45:40.992Z,98822.09
2017-06-28T02:48:10.063Z,98829.55
2017-06-28T02:50:39.126Z,98831.66
2017-06-28T02:53:08.226Z,98829.23
2017-06-28T02:55:37.290Z,98817.20
2017-06-28T02:58:07.107Z,98817.03
2017-06-28T03:00:36.940Z,98819.55
2017-06-28T03:03:06.007Z,98816.22
2017-06-28T03:05:35.071Z,98831.34
2017-06-28T03:08:04.196Z,98829.30
2017-06-28T03:10:33.261Z,98827.72
2017-06-28T03:13:02.355Z,98821.13
2017-06-28T03:15:31.424Z,98810.33
2017-06-28T03:18:00.516Z,98808.17
2017-06-28T03:20:29.888Z,98802.70
2017-06-28T03:22:58.984Z,98799.97
2017-06-28T03:25:28.060Z,98794.08
2017-06-28T03:27:57.144Z,98797.02
2017-06-28T03:30:26.220Z,98791.50
2017-06-28T03:32:55.310Z,98789.14
2017-06-28T03:35:24.383Z,98787.25
2017-06-28T03:37:53.506Z,98789.55
2017-06-28T03:40:22.556Z,98782.61
2017-06-28T03:42:51.632Z,98781.59
2017-06-28T03:45:20.707Z,98779.55
2017-06-28T03:47:49.784Z,98774.36
2017-06-28T03:50:18.880Z,98775.34
2017-06-28T03:52:47.955Z,98768.42
2017-06-28T03:55:17.024Z,98774.67
2017-06-28T03:57:46.352Z,98780.75
2017-06-28T04:00:15.407Z,98773.75
2017-06-28T04:02:44.473Z,98768.56
2017-06-28T04:05:13.592Z,98767.46
2017-06-28T04:07:42.640Z,98771.09
2017-06-28T04:10:11.741Z,98771.97
2017-06-28T04:12:40.830Z,98768.19
2017-06-28T04:15:09.932Z,98760.66
2017-06-28T04:17:38.995Z,98761.08
2017-06-28T04:20:08.073Z,98768.50
2017-06-28T04:22:37.116Z,98764.89
2017-06-28T04:25:06.155Z,98762.97
2017-06-28T04:27:35.221Z,98761.28
2017-06-28T04:30:04.325Z,98756.41
2017-06-28T04:32:33.444Z,98753.27
2017-06-28T04:35:02.493Z,98746.23
2017-06-28T04:37:31.544Z,98753.05
2017-06-28T04:40:00.613Z,98756.53
2017-06-28T04:42:29.655Z,98758.56
2017-06-28T04:44:58.736Z,98764.97
2017-06-28T04:47:27.799Z,98771.83
2017-06-28T04:49:57.119Z,98775.95
2017-06-28T04:52:26.172Z,98782.48
2017-06-28T04:54:55.237Z,98769.53
2017-06-28T04:57:24.308Z,98765.94
2017-06-28T04:59:53.352Z,98755.12
2017-06-28T05:02:22.412Z,98758.22
2017-06-28T05:07:29.569Z,98756.13
2017-06-28T05:09:58.612Z,98761.04
2017-06-28T05:12:27.680Z,98764.79
2017-06-28T05:14:56.754Z,98764.09
2017-06-28T05:17:25.813Z,98762.66
2017-06-28T05:19:54.888Z,98770.63
2017-06-28T05:22:23.970Z,98769.30
2017-06-28T05:24:53.282Z,98768.80
2017-06-28T05:27:22.360Z,98767.94
2017-06-28T05:29:51.460Z,98763.43
2017-06-28T05:32:20.523Z,98763.50
2017-06-28T05:34:49.592Z,98768.38
2017-06-28T05:37:18.962Z,98766.39
2017-06-28T05:39:48.025Z,98766.29
2017-06-28T05:42:17.154Z,98764.11
2017-06-28T05:44:46.191Z,98767.55
2017-06-28T05:47:15.335Z,98761.36
2017-06-28T05:49:44.410Z,98758.66
2017-06-28T05:52:13.443Z,98764.35
2017-06-28T05:54:42.524Z,98772.36
2017-06-28T05:57:11.644Z,98770.16
2017-06-28T05:59:40.703Z,98758.25
2017-06-28T06:02:09.785Z,98761.90
2017-06-28T06:04:38.948Z,98758.87
2017-06-28T06:07:08.042Z,98755.07
2017-06-28T06:09:37.164Z,98760.88
2017-06-28T06:12:06.307Z,98759.98
2017-06-28T06:14:35.383Z,98753.63
2017-06-28T06:17:04.656Z,98759.38
2017-06-28T06:19:33.922Z,98752.70
2017-06-28T06:22:02.972Z,98751.36
2017-06-28T06:24:32.065Z,98753.39
2017-06-28T06:27:01.164Z,98747.30
2017-06-28T06:29:30.219Z,98747.77
2017-06-28T06:31:59.317Z,98741.39
2017-06-28T06:34:28.389Z,98747.95
2017-06-28T06:36:57.463Z,98738.44
2017-06-28T06:39:26.515Z,98742.39
2017-06-28T06:41:55.592Z,98743.54
2017-06-28T06:44:24.661Z,98741.61
2017-06-28T06:46:53.715Z,98729.68
2017-06-28T06:49:22.789Z,98728.79
2017-06-28T06:51:51.859Z,98728.66
2017-06-28T06:54:21.135Z,98725.13
2017-06-28T06:56:50.224Z,98717.52
2017-06-28T06:59:19.256Z,98711.81
2017-06-28T07:01:48.345Z,98709.95
2017-06-28T07:04:17.473Z,98713.86
2017-06-28T07:06:46.550Z,98702.80
2017-06-28T07:09:16.029Z,98699.48
2017-06-28T07:11:45.125Z,98692.34
2017-06-28T07:14:14.169Z,98694.28
2017-06-28T07:16:43.213Z,98681.11
2017-06-28T07:19:12.287Z,98686.98
2017-06-28T07:21:41.336Z,98688.65
2017-06-28T07:24:10.446Z,98691.03
2017-06-28T07:26:39.503Z,98693.03
2017-06-28T07:29:08.621Z,98683.44
2017-06-28T07:31:37.666Z,98679.76
2017-06-28T07:34:06.992Z,98682.98
2017-06-28T07:36:36.290Z,98684.65
2017-06-28T07:39:05.342Z,98683.48
2017-06-28T07:41:34.469Z,98691.41
2017-06-28T07:44:03.553Z,98687.03
2017-06-28T07:46:32.611Z,98684.11
2017-06-28T07:49:01.655Z,98688.52
2017-06-28T07:51:30.757Z,98687.91
2017-06-28T07:53:59.842Z,98694.28
2017-06-28T07:56:29.972Z,98684.42
2017-06-28T07:58:59.060Z,98687.42
2017-06-28T08:01:28.123Z,98679.49
2017-06-28T08:03:57.203Z,98678.38
2017-06-28T08:06:26.235Z,98683.65
2017-06-28T08:08:55.280Z,98684.81
2017-06-28T08:11:24.369Z,98683.92
2017-06-28T08:13:53.425Z,98678.38
2017-06-28T08:16:22.505Z,98686.98
2017-06-28T08:18:51.619Z,98688.17
2017-06-28T08:21:20.867Z,98678.83
2017-06-28T08:23:49.918Z,98678.56
2017-06-28T08:26:18.976Z,98679.41
2017-06-28T08:28:48.054Z,98682.47
2017-06-28T08:31:17.374Z,98683.96
2017-06-28T08:33:46.431Z,98679.16
2017-06-28T08:36:15.518Z,98684.70
2017-06-28T08:38:44.551Z,98676.41
2017-06-28T08:41:13.674Z,98672.78
2017-06-28T08:43:42.736Z,98666.58
2017-06-28T08:46:11.771Z,98671.14
2017-06-28T08:48:41.525Z,98658.56
2017-06-28T08:51:10.704Z,98661.88
2017-06-28T08:53:39.795Z,98657.38
2017-06-28T08:56:08.888Z,98660.27
2017-06-28T08:58:37.935Z,98669.45
2017-06-28T09:01:07.028Z,98665.88
2017-06-28T09:03:36.119Z,98666.00
2017-06-28T09:06:05.235Z,98660.33
2017-06-28T09:08:34.274Z,98661.19
2017-06-28T09:11:03.334Z,98655.08
2017-06-28T09:13:32.627Z,98659.45
2017-06-28T09:16:01.681Z,98658.33
2017-06-28T09:18:30.761Z,98659.44
2017-06-28T09:20:59.832Z,98657.31
2017-06-28T09:23:28.904Z,98652.28
2017-06-28T09:25:57.963Z,98651.69
2017-06-28T09:28:27.036Z,98658.33
2017-06-28T09:30:56.096Z,98652.57
2017-06-28T09:33:25.173Z,98650.39
2017-06-28T09:35:54.235Z,98648.91
2017-06-28T09:38:23.331Z,98642.75
2017-06-28T09:40:52.368Z,98646.34
2017-06-28T09:43:21.460Z,98648.14
2017-06-28T09:45:50.512Z,98648.77
2017-06-28T09:48:19.584Z,98649.11
2017-06-28T09:50:48.633Z,98657.78
2017-06-28T09:53:17.734Z,98658.78
2017-06-28T09:55:46.760Z,98660.67
2017-06-28T09:58:15.876Z,98656.59
2017-06-28T10:00:44.989Z,98656.36
2017-06-28T10:03:14.064Z,98650.84
2017-06-28T10:05:43.169Z,98656.75
2017-06-28T10:08:12.251Z,98659.05
2017-06-28T10:10:41.413Z,98664.75
2017-06-28T10:13:10.475Z,98653.73
2017-06-28T10:15:39.551Z,98658.78
2017-06-28T10:18:08.667Z,98661.16
2017-06-28T10:20:37.756Z,98651.12
2017-06-28T10:23:06.825Z,98651.19
2017-06-28T10:25:35.908Z,98647.95
2017-06-28T10:28:04.984Z,98650.62
2017-06-28T10:30:34.040Z,98653.28
2017-06-28T10:33:03.080Z,98638.53
2017-06-28T10:35:32.176Z,98641.75
2017-06-28T10:38:01.245Z,98640.06
2017-06-28T10:40:30.335Z,98630.11
2017-06-28T10:42:59.376Z,98627.78
2017-06-28T10:45:28.430Z,98626.39
2017-06-28T10:47:57.521Z,98621.26
2017-06-28T10:50:26.568Z,98624.62
2017-06-28T10:52:55.653Z,98616.77
2017-06-28T10:55:24.903Z,98618.29
2017-06-28T10:57:53.980Z,98613.80
2017-06-28T11:00:23.066Z,98617.62
2017-06-28T11:02:52.099Z,98612.80
2017-06-28T11:05:21.190Z,98612.08
2017-06-28T11:07:50.273Z,98609.55
2017-06-28T11:10:19.357Z,98609.00
2017-06-28T11:12:48.381Z,98608.08
2017-06-28T11:15:17.535Z,98606.41
2017-06-28T11:17:46.615Z,98598.70
2017-06-28T11:20:15.671Z,98609.52
2017-06-28T11:22:46.788Z,98611.45
2017-06-28T11:25:15.901Z,98607.30
2017-06-28T11:27:44.972Z,98601.67
2017-06-28T11:30:14.253Z,98600.83
2017-06-28T11:32:43.402Z,98595.70
2017-06-28T11:35:12.440Z,98595.61
2017-06-28T11:37:41.503Z,98597.16
2017-06-28T11:40:10.844Z,98592.00
2017-06-28T11:42:39.861Z,98587.75
2017-06-28T11:45:09.954Z,98597.06
2017-06-28T11:47:39.036Z,98584.37
2017-06-28T11:50:08.090Z,98588.53
2017-06-28T11:52:37.162Z,98585.85
2017-06-28T11:55:06.533Z,98579.57
2017-06-28T11:57:35.590Z,98586.23
2017-06-28T12:00:04.680Z,98581.69
2017-06-28T12:02:33.772Z,98582.77
2017-06-28T12:05:02.832Z,98578.30
2017-06-28T12:07:32.973Z,98580.39
2017-06-28T12:10:02.112Z,98577.08
2017-06-28T12:12:31.152Z,98584.48
2017-06-28T12:15:00.287Z,98582.67
2017-06-28T12:17:29.388Z,98575.08
2017-06-28T12:19:58.694Z,98578.56
2017-06-28T12:22:27.755Z,98582.87
2017-06-28T12:24:57.793Z,98580.56
2017-06-28T12:27:26.848Z,98572.11
2017-06-28T12:29:55.925Z,98573.62
2017-06-28T12:32:25.308Z,98571.75
2017-06-28T12:34:54.352Z,98566.92
2017-06-28T12:37:23.476Z,98566.31
2017-06-28T12:39:52.525Z,98557.12
2017-06-28T12:42:21.585Z,98560.09
2017-06-28T12:44:50.638Z,98559.16
2017-06-28T12:47:19.702Z,98551.77
2017-06-28T12:49:48.793Z,98549.27
2017-06-28T12:52:17.863Z,98539.82
2017-06-28T12:54:47.132Z,98539.20
2017-06-28T12:57:16.346Z,98533.41
2017-06-28T12:59:45.387Z,98527.84
2017-06-28T13:02:14.462Z,98529.29
2017-06-28T13:04:43.527Z,98529.33
2017-06-28T13:07:12.842Z,98529.27
2017-06-28T13:09:42.152Z,98519.88
2017-06-28T13:12:11.266Z,98515.23
2017-06-28T13:14:40.333Z,98517.30
2017-06-28T13:17:09.386Z,98514.41
2017-06-28T13:19:38.680Z,98511.58
2017-06-28T13:22:07.725Z,98509.92
2017-06-28T13:24:36.829Z,98500.81
2017-06-28T13:27:05.932Z,98505.70
2017-06-28T13:29:35.006Z,98495.85
2017-06-28T13:32:04.074Z,98498.83
2017-06-28T13:34:33.136Z,98497.55
2017-06-28T13:37:02.234Z,98496.89
2017-06-28T13:39:31.327Z,98498.62
2017-06-28T13:42:00.425Z,98504.78
2017-06-28T13:44:29.553Z,98506.37
2017-06-28T13:46:58.601Z,98538.92
2017-06-28T13:49:27.664Z,98542.28
2017-06-28T13:51:56.743Z,98552.50
2017-06-28T13:54:25.800Z,98561.19
2017-06-28T13:56:54.868Z,98559.34
2017-06-28T13:59:23.937Z,98555.73
2017-06-28T14:01:52.991Z,98569.13
2017-06-28T14:04:22.064Z,98566.38
2017-06-28T14:06:51.132Z,98555.05
2017-06-28T14:09:20.244Z,98558.42
2017-06-28T14:11:49.514Z,98557.59
2017-06-28T14:14:18.574Z,98561.53
2017-06-28T14:16:47.649Z,98552.53
2017-06-28T14:19:16.750Z,98552.83
2017-06-28T14:21:45.832Z,98558.78
2017-06-28T14:24:14.927Z,98555.30
2017-06-28T14:26:44.117Z,98547.88
2017-06-28T14:29:20.894Z,98550.70
2017-06-28T14:31:49.982Z,98557.22
2017-06-28T14:34:19.061Z,98560.36
2017-06-28T14:36:48.152Z,98558.88
2017-06-28T14:39:17.186Z,98556.37
2017-06-28T14:41:46.274Z,98560.82
2017-06-28T14:44:15.355Z,98564.01
2017-06-28T14:46:44.407Z,98563.06
2017-06-28T14:49:13.599Z,98573.58
2017-06-28T14:51:42.736Z,98573.47
2017-06-28T14:54:13.019Z,98568.00
2017-06-28T14:56:42.327Z,98562.38
2017-06-28T14:59:11.393Z,98567.41
2017-06-28T15:01:40.472Z,98564.47
2017-06-28T15:04:09.565Z,98558.77
2017-06-28T15:06:38.645Z,98556.45
2017-06-28T15:09:09.772Z,98546.64
2017-06-28T15:11:39.655Z,98550.78
2017-06-28T15:14:08.723Z,98547.84
2017-06-28T15:16:38.444Z,98549.21
2017-06-28T15:19:07.622Z,98541.73
2017-06-28T15:21:36.702Z,98535.89
2017-06-28T15:24:06.556Z,98532.52
2017-06-28T15:26:36.398Z,98524.30
2017-06-28T15:29:05.515Z,98527.05
2017-06-28T15:31:34.583Z,98529.05
2017-06-28T15:34:03.674Z,98525.89
2017-06-28T15:36:32.764Z,98522.45
2017-06-28T15:39:02.071Z,98529.05
2017-06-28T15:41:31.168Z,98527.16
2017-06-28T15:44:00.234Z,98527.99
2017-06-28T15:46:29.323Z,98523.14
2017-06-28T15:48:58.429Z,98523.91
2017-06-28T15:51:27.586Z,98523.25
2017-06-28T15:54:15.031Z,98520.66
2017-06-28T15:56:47.627Z,98529.80
2017-06-28T15:59:16.687Z,98532.18
2017-06-28T16:01:45.766Z,98530.84
2017-06-28T16:10:29.373Z,98533.14
2017-06-28T16:12:58.441Z,98541.95
2017-06-28T16:15:27.721Z,98543.48
2017-06-28T16:17:56.829Z,98538.73
2017-06-28T16:20:25.932Z,98547.68
2017-06-28T16:22:55.196Z,98546.70
2017-06-28T16:25:24.293Z,98540.24
2017-06-28T16:27:53.484Z,98538.86
2017-06-28T16:30:22.561Z,98543.48
2017-06-28T16:32:51.718Z,98544.72
2017-06-28T16:35:20.789Z,98543.28
2017-06-28T16:37:50.100Z,98543.72
2017-06-28T16:40:19.221Z,98541.17
2017-06-28T16:42:48.988Z,98541.92
2017-06-28T16:45:18.041Z,98546.17
2017-06-28T16:47:47.144Z,98544.41
2017-06-28T16:50:16.239Z,98541.90
2017-06-28T16:52:45.287Z,98543.75
2017-06-28T16:55:14.345Z,98542.73
2017-06-28T16:57:43.438Z,98538.27
2017-06-28T17:00:12.513Z,98538.27
2017-06-28T17:02:41.706Z,98547.87
2017-06-28T17:05:10.803Z,98551.52
2017-06-28T17:07:40.123Z,98556.14
2017-06-28T17:10:09.205Z,98556.77
2017-06-28T17:12:39.170Z,98557.05
2017-06-28T17:15:08.260Z,98549.72
2017-06-28T17:17:37.312Z,98551.87
2017-06-28T17:20:06.400Z,98553.30
2017-06-28T17:22:35.497Z,98555.52
2017-06-28T17:25:04.613Z,98559.34
2017-06-28T17:27:33.673Z,98555.78
2017-06-28T17:30:02.761Z,98559.67
2017-06-28T17:32:31.828Z,98555.86
2017-06-28T17:35:00.903Z,98554.38
2017-06-28T17:37:29.951Z,98557.84
2017-06-28T17:39:59.034Z,98548.77
2017-06-28T17:42:28.127Z,98544.58
2017-06-28T17:44:57.167Z,98549.25
2017-06-28T17:47:26.279Z,98549.20
2017-06-28T17:49:55.361Z,98557.05
2017-06-28T17:52:24.435Z,98559.59
2017-06-28T17:54:53.476Z,98552.68
2017-06-28T17:57:22.529Z,98547.57
2017-06-28T17:59:51.606Z,98549.09
2017-06-28T18:02:21.718Z,98548.66
2017-06-28T18:04:51.167Z,98537.70
2017-06-28T18:07:20.203Z,98541.11
2017-06-28T18:09:49.256Z,98550.09
2017-06-28T18:12:18.332Z,98546.88
2017-06-28T18:14:47.375Z,98544.45
2017-06-28T18:17:16.482Z,98537.53
2017-06-28T18:19:46.035Z,98540.05
2017-06-28T18:22:15.128Z,98536.84
2017-06-28T18:24:44.233Z,98533.14
2017-06-28T18:27:13.306Z,98527.67
2017-06-28T18:29:42.400Z,98535.30
2017-06-28T18:32:11.502Z,98540.61
2017-06-28T18:34:40.592Z,98543.56
2017-06-28T18:37:10.803Z,98543.76
2017-06-28T18:39:39.840Z,98539.08
2017-06-28T18:42:08.966Z,98540.22
2017-06-28T18:44:38.040Z,98543.31
2017-06-28T18:47:07.126Z,98540.77
2017-06-28T18:49:36.452Z,98537.72
2017-06-28T18:52:06.235Z,98535.29
2017-06-28T18:54:35.298Z,98532.88
2017-06-28T18:57:05.154Z,98528.34
2017-06-28T18:59:35.236Z,98531.97
2017-06-28T19:02:04.813Z,98527.96
2017-06-28T19:04:33.879Z,98527.47
2017-06-28T19:07:02.952Z,98524.42
2017-06-28T19:09:32.044Z,98514.11
2017-06-28T19:12:01.125Z,98521.94
2017-06-28T19:14:30.188Z,98526.41
2017-06-28T19:16:59.256Z,98531.45
2017-06-28T19:19:28.354Z,98527.00
2017-06-28T19:21:57.836Z,98524.73
2017-06-28T19:24:26.928Z,98524.25
2017-06-28T19:26:56.075Z,98523.45
2017-06-28T19:29:25.147Z,98532.74
2017-06-28T19:31:54.227Z,98529.13
2017-06-28T19:34:23.292Z,98524.80
2017-06-28T19:36:52.415Z,98516.53
2017-06-28T19:39:21.498Z,98523.69
2017-06-28T19:41:50.604Z,98518.95
2017-06-28T19:44:19.866Z,98517.10
2017-06-28T19:46:48.921Z,98507.16
2017-06-28T19:49:18.935Z,98513.36
2017-06-28T19:51:48.043Z,98507.66
2017-06-28T19:54:17.176Z,98505.48
2017-06-28T19:56:46.322Z,98506.10
2017-06-28T19:59:15.957Z,98500.42
2017-06-28T20:01:45.292Z,98503.14
2017-06-28T20:04:15.113Z,98500.50
2017-06-28T20:06:44.222Z,98499.51
2017-06-28T20:09:13.302Z,98504.03
2017-06-28T20:11:42.410Z,98505.19
2017-06-28T20:14:11.773Z,98508.45
2017-06-28T20:16:41.612Z,98521.38
2017-06-28T20:19:10.665Z,98516.66
2017-06-28T20:21:40.543Z,98512.08
2017-06-28T20:24:09.652Z,98508.78
2017-06-28T20:26:38.716Z,98516.77
2017-06-28T20:29:08.593Z,98515.14
2017-06-28T20:31:37.920Z,98509.64
2017-06-28T20:34:07.302Z,98525.49
2017-06-28T20:36:36.420Z,98523.88
2017-06-28T20:39:05.561Z,98516.69
2017-06-28T20:41:35.288Z,98514.42
2017-06-28T20:44:04.343Z,98509.34
2017-06-28T20:46:33.430Z,98510.43
2017-06-28T20:49:02.504Z,98515.42
2017-06-28T20:51:31.560Z,98508.59
2017-06-28T20:54:00.689Z,98509.88
2017-06-28T20:56:29.774Z,98507.51
2017-06-28T20:58:59.661Z,98509.33
2017-06-28T21:01:28.721Z,98511.39
2017-06-28T21:03:57.947Z,98505.12
2017-06-28T21:06:26.991Z,98514.59
2017-06-28T21:08:56.821Z,98519.16
2017-06-28T21:11:25.920Z,98517.52
2017-06-28T21:13:54.994Z,98517.57
2017-06-28T21:16:24.119Z,98519.42
2017-06-28T21:18:53.156Z,98522.39
2017-06-28T21:21:22.233Z,98520.50
2017-06-28T21:23:51.572Z,98521.00
2017-06-28T21:26:21.436Z,98526.94
2017-06-28T21:28:50.519Z,98527.06
2017-06-28T21:31:19.581Z,98520.36
2017-06-28T21:33:48.693Z,98514.33
2017-06-28T21:36:17.757Z,98522.84
2017-06-28T21:38:47.997Z,98518.28
2017-06-28T21:41:17.830Z,98520.30
2017-06-28T21:43:46.894Z,98509.38
2017-06-28T21:46:15.967Z,98506.87
2017-06-28T21:48:45.031Z,98502.22
2017-06-28T21:51:14.951Z,98493.79
2017-06-28T21:53:44.022Z,98500.67
2017-06-28T21:56:13.137Z,98497.15
2017-06-28T21:58:42.273Z,98487.31
2017-06-28T22:01:11.355Z,98480.89
2017-06-28T22:03:40.440Z,98484.77
2017-06-28T22:06:09.512Z,98485.63
2017-06-28T22:08:38.592Z,98480.33
2017-06-28T22:11:07.712Z,98476.25
2017-06-28T22:13:36.892Z,98475.33
2017-06-28T22:16:05.961Z,98471.42
2017-06-28T22:19:05.693Z,98472.23
2017-06-28T22:21:34.780Z,98465.43
2017-06-28T22:24:03.912Z,98463.67
2017-06-28T22:26:32.964Z,98459.93
2017-06-28T22:29:02.057Z,98460.31
2017-06-28T22:31:31.119Z,98467.80
2017-06-28T22:34:00.177Z,98468.40
2017-06-28T22:36:29.229Z,98463.19
2017-06-28T22:38:59.071Z,98468.30
2017-06-28T22:41:28.176Z,98470.24
2017-06-28T22:43:57.219Z,98471.48
2017-06-28T22:46:26.600Z,98475.21
2017-06-28T22:48:55.668Z,98468.94
2017-06-28T22:51:24.728Z,98467.00
2017-06-28T22:53:53.809Z,98459.52
2017-06-28T22:56:23.649Z,98463.83
2017-06-28T22:58:52.691Z,98467.39
2017-06-28T23:01:21.748Z,98461.89
2017-06-28T23:03:51.056Z,98454.53
2017-06-28T23:06:20.120Z,98459.78
2017-06-28T23:08:49.156Z,98460.59
2017-06-28T23:11:18.252Z,98465.91
2017-06-28T23:13:47.354Z,98464.50
2017-06-28T23:16:17.229Z,98464.16
2017-06-28T23:18:46.965Z,98469.87
2017-06-28T23:21:16.832Z,98461.02
2017-06-28T23:23:45.866Z,98457.49
2017-06-28T23:26:14.955Z,98460.48
2017-06-28T23:28:44.042Z,98460.06
2017-06-28T23:31:13.524Z,98465.60
2017-06-28T23:33:42.930Z,98456.93
2017-06-28T23:36:11.999Z,98462.22
2017-06-28T23:38:41.058Z,98466.16
2017-06-28T23:41:10.965Z,98473.08
2017-06-28T23:43:40.673Z,98469.37
2017-06-28T23:46:10.617Z,98464.05
2017-06-28T23:48:39.683Z,98459.75
2017-06-28T23:51:08.767Z,98462.89
2017-06-28T23:53:37.834Z,98455.66
2017-06-28T23:56:06.926Z,98463.73
2017-06-28T23:58:36.015Z,98458.20
